createdAt,value
2023-01-20T03:33:08.807Z,9.02
2023-01-20T03:36:17.210Z,9.23
2023-01-20T03:39:25.355Z,9.14
2023-01-20T03:42:37.355Z,9.23
2023-01-20T03:45:54.177Z,9.02
2023-01-20T03:49:09.966Z,9.30
2023-01-20T03:52:22.527Z,9.62
2023-01-20T03:55:35.456Z,9.28
2023-01-20T03:58:47.383Z,9.71
2023-01-20T04:01:54.701Z,9.36
2023-01-20T04:05:03.789Z,9.71
2023-01-20T04:08:12.460Z,9.62
2023-01-20T04:11:19.041Z,9.99
2023-01-20T04:14:25.151Z,9.60
2023-01-20T04:17:32.033Z,9.53
2023-01-20T04:20:39.732Z,9.56
2023-01-20T04:23:53.387Z,9.89
2023-01-20T04:26:59.777Z,9.81
2023-01-20T04:30:06.723Z,9.69
2023-01-20T04:33:13.083Z,9.69
2023-01-20T04:36:20.579Z,9.79
2023-01-20T04:39:26.951Z,9.72
2023-01-20T04:42:33.343Z,9.84
2023-01-20T04:45:41.939Z,9.93
2023-01-20T04:48:48.330Z,10.03
2023-01-20T04:51:55.689Z,10.14
2023-01-20T04:55:01.554Z,10.25
2023-01-20T04:58:07.510Z,10.24
2023-01-20T05:01:13.558Z,10.52
2023-01-20T05:04:19.841Z,10.37
2023-01-20T05:07:27.188Z,10.44
2023-01-20T05:10:33.940Z,10.52
2023-01-20T05:13:40.369Z,10.41
2023-01-20T05:16:47.219Z,10.26
2023-01-20T05:19:53.390Z,10.45
2023-01-20T05:23:01.514Z,10.64
2023-01-20T05:26:07.990Z,10.59
2023-01-20T05:29:14.104Z,10.21
2023-01-20T05:32:20.276Z,10.45
2023-01-20T05:35:26.792Z,10.56
2023-01-20T05:38:34.588Z,10.34
2023-01-20T05:41:40.691Z,10.74
2023-01-20T05:44:46.589Z,11.02
2023-01-20T05:47:56.459Z,10.87
2023-01-20T05:51:02.503Z,10.70
2023-01-20T05:54:10.005Z,10.97
2023-01-20T05:57:18.508Z,10.63
2023-01-20T06:00:25.307Z,10.78
2023-01-20T06:03:31.564Z,10.80
2023-01-20T06:06:37.826Z,10.55
2023-01-20T06:09:45.296Z,10.67
2023-01-20T06:12:53.475Z,10.84
2023-01-20T06:15:59.961Z,10.46
2023-01-20T06:19:06.188Z,10.59
2023-01-20T06:22:15.302Z,10.23
2023-01-20T06:25:23.277Z,10.00
2023-01-20T06:28:30.117Z,10.42
2023-01-20T06:31:36.136Z,10.31
2023-01-20T06:34:42.164Z,9.73
2023-01-20T06:37:48.736Z,9.34
2023-01-20T06:41:00.008Z,9.50
2023-01-20T06:44:06.311Z,9.37
2023-01-20T06:47:12.618Z,9.44
2023-01-20T06:50:18.983Z,10.12
2023-01-20T06:53:25.388Z,10.25
2023-01-20T06:56:33.272Z,9.90
2023-01-20T06:59:39.801Z,10.14
2023-01-20T07:02:46.212Z,10.15
2023-01-20T07:06:01.340Z,9.86
2023-01-20T07:09:08.891Z,9.79
2023-01-20T07:12:16.292Z,9.87
2023-01-20T07:15:22.281Z,9.40
2023-01-20T07:18:28.606Z,10.18
2023-01-20T07:21:34.944Z,9.81
2023-01-20T07:24:41.492Z,9.58
2023-01-20T07:27:49.860Z,9.69
2023-01-20T07:30:56.257Z,9.74
2023-01-20T07:34:02.540Z,9.42
2023-01-20T07:37:09.001Z,9.72
2023-01-20T07:40:15.600Z,9.78
2023-01-20T07:43:23.856Z,9.50
2023-01-20T08:16:01.711Z,9.10
2023-01-20T08:19:08.079Z,9.08
2023-01-20T08:22:14.516Z,9.19
2023-01-20T08:25:20.932Z,8.77
2023-01-20T08:28:28.435Z,9.18
2023-01-20T08:31:36.690Z,9.15
2023-01-20T08:34:43.445Z,9.41
2023-01-20T08:37:49.919Z,9.17
2023-01-20T08:40:56.505Z,9.06
2023-01-20T08:44:05.321Z,9.17
2023-01-20T08:47:13.022Z,8.91
2023-01-20T08:50:22.668Z,8.74
2023-01-20T08:53:29.176Z,8.71
2023-01-20T08:56:36.785Z,8.41
2023-01-20T08:59:43.061Z,8.46
2023-01-20T09:02:51.047Z,8.45
2023-01-20T09:38:56.126Z,9.53
2023-01-20T09:42:31.109Z,9.17
2023-01-20T09:45:40.489Z,9.22
2023-01-20T09:49:11.754Z,9.33
2023-01-20T09:52:44.973Z,9.14
2023-01-20T09:55:55.359Z,9.37
2023-01-20T09:59:08.005Z,9.01
2023-01-20T10:02:20.203Z,9.10
2023-01-20T10:05:33.627Z,9.45
2023-01-20T10:09:03.744Z,10.07
2023-01-20T10:12:16.959Z,9.43
2023-01-20T10:15:28.081Z,9.22
2023-01-20T10:18:41.922Z,9.30
2023-01-20T10:21:54.978Z,9.61
2023-01-20T10:25:06.778Z,10.15
2023-01-20T10:28:17.462Z,9.51
2023-01-20T10:31:29.679Z,9.49
2023-01-20T10:34:43.300Z,9.79
2023-01-20T10:37:49.656Z,10.19
2023-01-20T10:41:01.651Z,9.74
2023-01-20T10:44:13.215Z,9.94
2023-01-20T10:47:26.205Z,9.81
2023-01-20T10:50:48.347Z,9.28
2023-01-20T10:54:05.036Z,9.75
2023-01-20T10:57:15.476Z,9.69
2023-01-20T11:00:27.346Z,9.40
2023-01-20T11:03:40.675Z,9.69
2023-01-20T11:06:50.133Z,9.50
2023-01-20T11:09:56.852Z,9.59
2023-01-20T11:13:03.691Z,10.05
2023-01-20T11:16:18.604Z,9.04
2023-01-20T11:19:25.086Z,8.93
2023-01-20T11:22:34.313Z,9.40
2023-01-20T11:25:40.967Z,8.68
2023-01-20T11:28:54.272Z,8.81
2023-01-20T11:32:01.783Z,9.14
2023-01-20T11:35:22.504Z,8.70
2023-01-20T11:38:30.351Z,8.86
2023-01-20T11:41:36.843Z,8.86
2023-01-20T11:44:44.457Z,7.89
2023-01-20T11:48:02.314Z,8.39
2023-01-20T11:51:20.623Z,7.63
2023-01-20T11:54:29.093Z,7.40
2023-01-20T11:57:35.712Z,7.29
2023-01-20T12:00:43.785Z,6.84
2023-01-20T12:04:17.553Z,6.74
2023-01-20T12:07:28.263Z,6.73
2023-01-20T12:10:37.034Z,6.71
2023-01-20T12:14:19.664Z,6.41
2023-01-20T12:17:41.097Z,6.80
2023-01-20T12:20:55.927Z,6.72
2023-01-20T12:24:12.924Z,7.41
2023-01-20T12:27:28.400Z,6.50
2023-01-20T12:30:57.244Z,6.54
2023-01-20T12:34:06.582Z,7.26
2023-01-20T12:37:23.080Z,7.12
2023-01-20T12:40:37.695Z,7.80
2023-01-20T12:43:58.574Z,7.17
2023-01-20T12:47:19.021Z,7.08
2023-01-20T12:50:35.993Z,7.74
2023-01-20T12:53:59.287Z,7.22
2023-01-20T12:57:14.630Z,7.08
2023-01-20T13:00:56.028Z,6.90
2023-01-20T13:04:45.539Z,6.96
2023-01-20T13:08:06.175Z,7.46
2023-01-20T13:11:24.357Z,7.61
2023-01-20T13:14:40.769Z,7.61
2023-01-20T13:18:04.254Z,7.80
2023-01-20T13:21:18.926Z,8.24
2023-01-20T13:24:29.417Z,8.22
2023-01-20T13:27:38.914Z,7.84
2023-01-20T13:30:48.352Z,7.69
2023-01-20T13:33:54.575Z,7.70
2023-01-20T13:37:32.579Z,7.88
2023-01-20T13:40:56.156Z,7.77
2023-01-20T13:44:27.564Z,7.47
2023-01-20T13:47:51.564Z,7.50
2023-01-20T13:51:38.786Z,7.54
2023-01-20T13:54:47.534Z,7.50
2023-01-20T13:57:54.106Z,7.71
2023-01-20T14:01:04.444Z,7.55
2023-01-20T14:04:18.846Z,7.49
2023-01-20T14:07:25.879Z,7.78
2023-01-20T14:10:31.718Z,7.83
2023-01-20T14:13:37.949Z,8.01
2023-01-20T14:16:45.704Z,7.86
2023-01-20T14:19:53.936Z,8.02
2023-01-20T14:23:31.902Z,7.93
2023-01-20T14:26:38.045Z,8.07
2023-01-20T14:29:44.247Z,8.17
2023-01-20T14:32:52.606Z,7.84
2023-01-20T14:35:58.907Z,7.92
2023-01-20T14:39:09.601Z,7.92
2023-01-20T14:42:20.006Z,8.19
2023-01-20T14:45:28.447Z,7.86
2023-01-20T14:48:36.559Z,7.79
2023-01-20T14:51:43.387Z,7.70
2023-01-20T14:54:50.824Z,7.70
2023-01-20T14:57:57.412Z,7.75
2023-01-20T15:01:06.264Z,7.82
2023-01-20T15:04:15.447Z,8.00
2023-01-20T15:07:22.887Z,7.64
2023-01-20T15:10:29.220Z,7.83
2023-01-20T15:13:37.683Z,7.63
2023-01-20T15:16:50.597Z,7.65
2023-01-20T15:19:58.289Z,6.94
2023-01-20T15:23:04.736Z,7.17
2023-01-20T15:26:19.691Z,7.31
2023-01-20T15:29:28.344Z,7.57
2023-01-20T15:32:34.819Z,7.21
2023-01-20T15:35:43.003Z,6.96
2023-01-20T15:38:49.556Z,7.19
2023-01-20T15:41:55.943Z,6.80
2023-01-20T15:45:02.060Z,7.09
2023-01-20T15:48:15.040Z,7.28
2023-01-20T15:51:23.043Z,7.03
2023-01-20T15:54:29.126Z,6.70
2023-01-20T15:57:35.694Z,7.06
2023-01-20T16:00:43.303Z,6.43
2023-01-20T16:03:49.736Z,7.17
2023-01-20T16:06:57.398Z,7.04
2023-01-20T16:10:03.711Z,6.97
2023-01-20T16:13:10.886Z,7.29
2023-01-20T16:16:19.762Z,7.44
2023-01-20T16:19:25.745Z,6.91
2023-01-20T16:22:33.316Z,6.97
2023-01-20T16:25:40.076Z,7.26
2023-01-20T16:28:46.232Z,7.35
2023-01-20T16:31:52.581Z,7.20
2023-01-20T16:34:58.746Z,7.19
2023-01-20T16:38:06.423Z,7.22
2023-01-20T16:41:16.825Z,6.95
2023-01-20T16:44:23.109Z,7.17
2023-01-20T16:47:29.209Z,7.19
2023-01-20T16:50:35.779Z,7.25
2023-01-20T16:53:43.819Z,7.11
2023-01-20T16:56:50.028Z,6.95
2023-01-20T16:59:56.380Z,7.09
2023-01-20T17:03:03.489Z,6.94
2023-01-20T17:06:11.208Z,6.67
2023-01-20T17:09:19.080Z,6.78
2023-01-20T17:12:25.193Z,6.67
2023-01-20T17:15:31.685Z,6.42
2023-01-20T17:18:38.293Z,6.46
2023-01-20T17:21:45.022Z,6.60
2023-01-20T17:24:52.820Z,6.69
2023-01-20T17:27:59.107Z,6.72
2023-01-20T17:31:07.328Z,6.54
2023-01-20T17:34:13.743Z,6.52
2023-01-20T17:37:19.750Z,6.53
2023-01-20T17:40:27.391Z,6.55
2023-01-20T17:43:34.306Z,6.58
2023-01-20T17:46:40.383Z,6.61
2023-01-20T17:49:47.037Z,6.67
2023-01-20T17:52:53.053Z,6.43
2023-01-20T17:56:11.806Z,6.32
2023-01-20T17:59:19.505Z,6.36
2023-01-20T18:02:25.940Z,6.33
2023-01-20T18:05:32.267Z,6.27
2023-01-20T18:08:39.415Z,6.41
2023-01-20T18:11:47.212Z,6.19
2023-01-20T18:14:54.762Z,6.13
2023-01-20T18:18:02.552Z,6.03
2023-01-20T18:21:10.331Z,6.06
2023-01-20T18:24:16.924Z,6.00
2023-01-20T18:27:24.606Z,5.70
2023-01-20T18:30:31.259Z,5.59
2023-01-20T18:33:40.036Z,5.40
2023-01-20T18:36:48.639Z,5.61
2023-01-20T18:39:55.180Z,5.69
2023-01-20T18:43:03.006Z,5.38
2023-01-20T18:46:10.657Z,5.58
2023-01-20T18:49:18.464Z,5.59
2023-01-20T18:52:25.593Z,5.28
2023-01-20T18:55:32.245Z,5.49
2023-01-20T18:58:45.751Z,5.80
2023-01-20T19:01:51.891Z,5.72
2023-01-20T19:04:58.044Z,5.41
2023-01-20T19:08:05.221Z,5.57
2023-01-20T19:11:14.194Z,5.67
2023-01-20T19:14:22.183Z,5.59
2023-01-20T19:17:29.430Z,5.49
2023-01-20T19:20:36.611Z,5.50
2023-01-20T19:23:45.404Z,5.29
2023-01-20T19:26:51.657Z,5.46
2023-01-20T19:29:59.388Z,5.50
2023-01-20T19:33:05.980Z,5.28
2023-01-20T19:36:14.965Z,5.49
2023-01-20T19:39:21.455Z,5.47
2023-01-20T19:42:27.465Z,4.94
2023-01-20T19:45:45.699Z,4.68
2023-01-20T19:48:52.695Z,5.48
2023-01-20T19:52:00.035Z,5.58
2023-01-20T19:55:07.402Z,5.50
2023-01-20T19:58:13.821Z,5.34
2023-01-20T20:01:24.249Z,5.72
2023-01-20T20:04:30.346Z,5.46
2023-01-20T20:07:36.678Z,4.92
2023-01-20T20:10:43.190Z,5.02
2023-01-20T20:13:49.491Z,5.07
2023-01-20T20:16:57.385Z,4.88
2023-01-20T20:20:03.963Z,4.57
2023-01-20T20:23:10.398Z,4.98
2023-01-20T20:26:16.509Z,4.72
2023-01-20T20:29:22.517Z,5.02
2023-01-20T20:32:30.203Z,4.32
2023-01-20T20:35:36.785Z,4.26
2023-01-20T20:38:43.034Z,4.02
2023-01-20T20:41:49.403Z,4.41
2023-01-20T20:44:55.750Z,4.41
2023-01-20T20:48:03.607Z,4.54
2023-01-20T20:51:12.565Z,4.68
2023-01-20T20:54:19.311Z,4.77
2023-01-20T20:57:25.522Z,4.91
2023-01-20T21:00:32.145Z,4.92
2023-01-20T21:03:40.144Z,4.47
2023-01-20T21:06:46.833Z,4.37
2023-01-20T21:09:54.707Z,4.58
2023-01-20T21:13:01.088Z,4.96
2023-01-20T21:16:10.690Z,4.17
2023-01-20T21:19:18.553Z,4.41
2023-01-20T21:22:24.803Z,4.31
2023-01-20T21:25:33.039Z,4.38
2023-01-20T21:28:40.817Z,4.80
2023-01-20T21:31:47.307Z,5.06
2023-01-20T21:35:02.047Z,4.61
2023-01-20T21:38:08.225Z,4.73
2023-01-20T21:41:16.488Z,4.95
2023-01-20T21:44:33.050Z,5.13
2023-01-20T21:47:39.200Z,4.90
2023-01-20T21:51:03.985Z,5.07
2023-01-20T21:54:10.518Z,5.02
2023-01-20T21:57:16.871Z,4.37
2023-01-20T22:00:23.823Z,4.48
2023-01-20T22:03:30.126Z,4.64
2023-01-20T22:06:37.871Z,4.84
2023-01-20T22:09:44.407Z,4.76
2023-01-20T22:12:50.687Z,4.67
2023-01-20T22:15:57.730Z,5.07
2023-01-20T22:19:03.818Z,4.51
2023-01-20T22:22:14.082Z,4.36
2023-01-20T22:25:21.503Z,4.51
2023-01-20T22:28:28.496Z,4.58
2023-01-20T22:31:35.254Z,3.81
2023-01-20T22:34:41.538Z,4.37
2023-01-20T22:37:49.166Z,4.12
2023-01-20T22:40:55.208Z,4.19
2023-01-20T22:44:01.321Z,4.28
2023-01-20T22:47:10.256Z,3.83
2023-01-20T22:50:17.186Z,3.33
2023-01-20T22:53:24.731Z,3.50
2023-01-20T22:56:32.352Z,4.04
2023-01-20T22:59:38.687Z,4.10
2023-01-20T23:02:44.912Z,4.39
2023-01-20T23:05:56.855Z,3.89
2023-01-20T23:09:07.797Z,3.72
2023-01-20T23:12:14.069Z,4.45
2023-01-20T23:15:20.529Z,4.56
2023-01-20T23:18:26.859Z,4.33
2023-01-20T23:21:34.291Z,4.74
2023-01-20T23:24:42.085Z,3.73
2023-01-20T23:27:48.654Z,3.15
2023-01-20T23:31:00.800Z,4.38
2023-01-20T23:34:07.056Z,4.28
2023-01-20T23:37:13.920Z,4.16
2023-01-20T23:40:21.639Z,3.93
2023-01-20T23:43:27.864Z,4.23
2023-01-20T23:46:34.187Z,4.01
2023-01-20T23:49:40.584Z,4.01
2023-01-20T23:52:47.068Z,4.53
2023-01-20T23:55:54.512Z,4.78
2023-01-20T23:59:01.024Z,4.30
